sensor_id;sensor_type;location;lat;lon;timestamp;temperature;humidity
46085;DHT22;31823;47.032;8.310;2023-07-09T00:00:24;19.60;99.90
46085;DHT22;31823;47.032;8.310;2023-07-09T00:02:49;19.60;99.90
46085;DHT22;31823;47.032;8.310;2023-07-09T00:05:16;19.60;99.90
46085;DHT22;31823;47.032;8.310;2023-07-09T00:07:43;19.50;99.90
46085;DHT22;31823;47.032;8.310;2023-07-09T00:10:17;19.60;99.90
46085;DHT22;31823;47.032;8.310;2023-07-09T00:12:43;19.60;99.90
46085;DHT22;31823;47.032;8.310;2023-07-09T00:15:11;19.50;99.90
46085;DHT22;31823;47.032;8.310;2023-07-09T00:17:37;19.50;99.90
46085;DHT22;31823;47.032;8.310;2023-07-09T00:20:05;19.50;99.90
46085;DHT22;31823;47.032;8.310;2023-07-09T00:22:30;19.50;99.90
46085;DHT22;31823;47.032;8.310;2023-07-09T00:24:56;19.50;99.90
46085;DHT22;31823;47.032;8.310;2023-07-09T00:27:23;19.40;99.90
46085;DHT22;31823;47.032;8.310;2023-07-09T00:29:50;19.50;99.90
46085;DHT22;31823;47.032;8.310;2023-07-09T00:32:19;19.40;99.90
46085;DHT22;31823;47.032;8.310;2023-07-09T00:34:46;19.40;99.90
46085;DHT22;31823;47.032;8.310;2023-07-09T00:37:17;19.40;99.90
46085;DHT22;31823;47.032;8.310;2023-07-09T00:39:45;19.40;99.90
46085;DHT22;31823;47.032;8.310;2023-07-09T00:42:13;19.40;99.90
46085;DHT22;31823;47.032;8.310;2023-07-09T00:44:44;19.30;99.90
46085;DHT22;31823;47.032;8.310;2023-07-09T00:47:48;19.30;99.90
46085;DHT22;31823;47.032;8.310;2023-07-09T00:50:41;19.30;99.90
46085;DHT22;31823;47.032;8.310;2023-07-09T00:53:19;19.20;99.90
46085;DHT22;31823;47.032;8.310;2023-07-09T00:56:00;19.20;99.90
46085;DHT22;31823;47.032;8.310;2023-07-09T00:58:27;19.20;99.90
46085;DHT22;31823;47.032;8.310;2023-07-09T01:00:56;19.20;99.90
46085;DHT22;31823;47.032;8.310;2023-07-09T01:05:56;19.10;99.90
46085;DHT22;31823;47.032;8.310;2023-07-09T01:08:23;19.00;99.90
46085;DHT22;31823;47.032;8.310;2023-07-09T01:10:49;19.00;99.90
46085;DHT22;31823;47.032;8.310;2023-07-09T01:13:15;19.00;99.90
46085;DHT22;31823;47.032;8.310;2023-07-09T01:15:41;18.90;99.90
46085;DHT22;31823;47.032;8.310;2023-07-09T01:18:07;18.90;99.90
46085;DHT22;31823;47.032;8.310;2023-07-09T01:20:34;18.80;99.90
46085;DHT22;31823;47.032;8.310;2023-07-09T01:22:59;18.80;99.90
46085;DHT22;31823;47.032;8.310;2023-07-09T01:25:26;18.80;99.90
46085;DHT22;31823;47.032;8.310;2023-07-09T01:27:53;18.90;99.90
46085;DHT22;31823;47.032;8.310;2023-07-09T01:30:30;18.80;99.90
46085;DHT22;31823;47.032;8.310;2023-07-09T01:32:58;18.80;99.90
46085;DHT22;31823;47.032;8.310;2023-07-09T01:35:24;18.80;99.90
46085;DHT22;31823;47.032;8.310;2023-07-09T01:37:51;18.70;99.90
46085;DHT22;31823;47.032;8.310;2023-07-09T01:40:19;18.60;99.90
46085;DHT22;31823;47.032;8.310;2023-07-09T01:42:45;18.60;99.90
46085;DHT22;31823;47.032;8.310;2023-07-09T01:45:11;18.70;99.90
46085;DHT22;31823;47.032;8.310;2023-07-09T01:47:37;18.60;99.90
46085;DHT22;31823;47.032;8.310;2023-07-09T01:50:04;18.60;99.90
46085;DHT22;31823;47.032;8.310;2023-07-09T01:52:31;18.60;99.90
46085;DHT22;31823;47.032;8.310;2023-07-09T01:54:58;18.50;99.90
46085;DHT22;31823;47.032;8.310;2023-07-09T01:57:26;18.60;99.90
46085;DHT22;31823;47.032;8.310;2023-07-09T01:59:59;18.60;99.90
46085;DHT22;31823;47.032;8.310;2023-07-09T02:02:25;18.60;99.90
46085;DHT22;31823;47.032;8.310;2023-07-09T02:04:55;18.60;99.90
46085;DHT22;31823;47.032;8.310;2023-07-09T02:07:23;18.50;99.90
46085;DHT22;31823;47.032;8.310;2023-07-09T02:09:49;18.60;99.90
46085;DHT22;31823;47.032;8.310;2023-07-09T02:12:16;18.50;99.90
46085;DHT22;31823;47.032;8.310;2023-07-09T02:14:42;18.50;99.90
46085;DHT22;31823;47.032;8.310;2023-07-09T02:17:09;18.50;99.90
46085;DHT22;31823;47.032;8.310;2023-07-09T02:19:36;18.40;99.90
46085;DHT22;31823;47.032;8.310;2023-07-09T02:22:02;18.50;99.90
46085;DHT22;31823;47.032;8.310;2023-07-09T02:24:28;18.60;99.90
46085;DHT22;31823;47.032;8.310;2023-07-09T02:26:58;18.50;99.90
46085;DHT22;31823;47.032;8.310;2023-07-09T02:29:24;18.50;99.90
46085;DHT22;31823;47.032;8.310;2023-07-09T02:31:51;18.40;99.90
46085;DHT22;31823;47.032;8.310;2023-07-09T02:34:18;18.40;99.90
46085;DHT22;31823;47.032;8.310;2023-07-09T02:36:44;18.40;99.90
46085;DHT22;31823;47.032;8.310;2023-07-09T02:39:10;18.30;99.90
46085;DHT22;31823;47.032;8.310;2023-07-09T02:41:36;18.20;99.90
46085;DHT22;31823;47.032;8.310;2023-07-09T02:44:03;18.20;99.90
46085;DHT22;31823;47.032;8.310;2023-07-09T02:46:29;18.10;99.90
46085;DHT22;31823;47.032;8.310;2023-07-09T02:48:55;18.10;99.90
46085;DHT22;31823;47.032;8.310;2023-07-09T02:51:20;18.10;99.90
46085;DHT22;31823;47.032;8.310;2023-07-09T02:53:47;18.10;99.90
46085;DHT22;31823;47.032;8.310;2023-07-09T02:56:12;18.10;99.90
46085;DHT22;31823;47.032;8.310;2023-07-09T02:58:38;18.10;99.90
46085;DHT22;31823;47.032;8.310;2023-07-09T03:01:03;18.00;99.90
46085;DHT22;31823;47.032;8.310;2023-07-09T03:03:30;18.00;99.90
46085;DHT22;31823;47.032;8.310;2023-07-09T03:05:56;18.00;99.90
46085;DHT22;31823;47.032;8.310;2023-07-09T03:08:22;18.00;99.90
46085;DHT22;31823;47.032;8.310;2023-07-09T03:10:47;18.00;99.90
46085;DHT22;31823;47.032;8.310;2023-07-09T03:13:13;17.90;99.90
46085;DHT22;31823;47.032;8.310;2023-07-09T03:15:38;18.00;99.90
46085;DHT22;31823;47.032;8.310;2023-07-09T03:18:04;17.90;99.90
46085;DHT22;31823;47.032;8.310;2023-07-09T03:20:30;17.90;99.90
46085;DHT22;31823;47.032;8.310;2023-07-09T03:22:55;17.80;99.90
46085;DHT22;31823;47.032;8.310;2023-07-09T03:25:21;17.80;99.90
46085;DHT22;31823;47.032;8.310;2023-07-09T03:27:49;17.80;99.90
46085;DHT22;31823;47.032;8.310;2023-07-09T03:30:15;17.80;99.90
46085;DHT22;31823;47.032;8.310;2023-07-09T03:32:42;17.70;99.90
46085;DHT22;31823;47.032;8.310;2023-07-09T03:35:07;17.70;99.90
46085;DHT22;31823;47.032;8.310;2023-07-09T03:37:33;17.70;99.90
46085;DHT22;31823;47.032;8.310;2023-07-09T03:39:59;17.80;99.90
46085;DHT22;31823;47.032;8.310;2023-07-09T03:42:25;17.80;99.90
46085;DHT22;31823;47.032;8.310;2023-07-09T03:44:51;17.70;99.90
46085;DHT22;31823;47.032;8.310;2023-07-09T03:47:16;17.70;99.90
46085;DHT22;31823;47.032;8.310;2023-07-09T03:49:43;17.70;99.90
46085;DHT22;31823;47.032;8.310;2023-07-09T03:52:09;17.60;99.90
46085;DHT22;31823;47.032;8.310;2023-07-09T03:54:34;17.60;99.90
46085;DHT22;31823;47.032;8.310;2023-07-09T03:57:00;17.70;99.90
46085;DHT22;31823;47.032;8.310;2023-07-09T03:59:25;17.70;99.90
46085;DHT22;31823;47.032;8.310;2023-07-09T04:01:51;17.60;99.90
46085;DHT22;31823;47.032;8.310;2023-07-09T04:04:16;17.70;99.90
46085;DHT22;31823;47.032;8.310;2023-07-09T04:06:46;17.60;99.90
46085;DHT22;31823;47.032;8.310;2023-07-09T04:09:12;17.70;99.90
46085;DHT22;31823;47.032;8.310;2023-07-09T04:11:37;17.80;99.90
46085;DHT22;31823;47.032;8.310;2023-07-09T04:14:03;17.70;99.90
46085;DHT22;31823;47.032;8.310;2023-07-09T04:16:28;17.70;99.90
46085;DHT22;31823;47.032;8.310;2023-07-09T04:18:54;17.70;99.90
46085;DHT22;31823;47.032;8.310;2023-07-09T04:21:19;17.60;99.90
46085;DHT22;31823;47.032;8.310;2023-07-09T04:23:45;17.60;99.90
46085;DHT22;31823;47.032;8.310;2023-07-09T04:26:13;17.60;99.90
46085;DHT22;31823;47.032;8.310;2023-07-09T04:28:39;17.60;99.90
46085;DHT22;31823;47.032;8.310;2023-07-09T04:31:05;17.60;99.90
46085;DHT22;31823;47.032;8.310;2023-07-09T04:33:30;17.60;99.90
46085;DHT22;31823;47.032;8.310;2023-07-09T04:35:56;17.70;99.90
46085;DHT22;31823;47.032;8.310;2023-07-09T04:38:22;17.70;99.90
46085;DHT22;31823;47.032;8.310;2023-07-09T04:40:48;17.60;99.90
46085;DHT22;31823;47.032;8.310;2023-07-09T04:43:14;17.60;99.90
46085;DHT22;31823;47.032;8.310;2023-07-09T04:45:39;17.60;99.90
46085;DHT22;31823;47.032;8.310;2023-07-09T04:48:05;17.70;99.90
46085;DHT22;31823;47.032;8.310;2023-07-09T04:50:31;17.80;99.90
46085;DHT22;31823;47.032;8.310;2023-07-09T04:52:56;17.90;99.90
46085;DHT22;31823;47.032;8.310;2023-07-09T04:55:22;17.90;99.90
46085;DHT22;31823;47.032;8.310;2023-07-09T04:57:47;17.90;99.90
46085;DHT22;31823;47.032;8.310;2023-07-09T05:00:13;17.90;99.90
46085;DHT22;31823;47.032;8.310;2023-07-09T05:02:39;17.90;99.90
46085;DHT22;31823;47.032;8.310;2023-07-09T05:05:05;17.90;99.90
46085;DHT22;31823;47.032;8.310;2023-07-09T05:07:32;17.90;99.90
46085;DHT22;31823;47.032;8.310;2023-07-09T05:09:58;18.10;99.90
46085;DHT22;31823;47.032;8.310;2023-07-09T05:12:26;18.10;99.90
46085;DHT22;31823;47.032;8.310;2023-07-09T05:14:52;18.10;99.90
46085;DHT22;31823;47.032;8.310;2023-07-09T05:17:17;18.20;99.90
46085;DHT22;31823;47.032;8.310;2023-07-09T05:19:43;18.20;99.90
46085;DHT22;31823;47.032;8.310;2023-07-09T05:22:09;18.20;99.90
46085;DHT22;31823;47.032;8.310;2023-07-09T05:24:35;18.20;99.90
46085;DHT22;31823;47.032;8.310;2023-07-09T05:27:00;18.30;99.90
46085;DHT22;31823;47.032;8.310;2023-07-09T05:29:26;18.30;99.90
46085;DHT22;31823;47.032;8.310;2023-07-09T05:31:52;18.30;99.90
46085;DHT22;31823;47.032;8.310;2023-07-09T05:34:18;18.40;99.90
46085;DHT22;31823;47.032;8.310;2023-07-09T05:36:43;18.40;99.90
46085;DHT22;31823;47.032;8.310;2023-07-09T05:39:10;18.50;99.90
46085;DHT22;31823;47.032;8.310;2023-07-09T05:41:35;18.50;99.90
46085;DHT22;31823;47.032;8.310;2023-07-09T05:44:01;18.50;99.90
46085;DHT22;31823;47.032;8.310;2023-07-09T05:46:27;18.60;99.90
46085;DHT22;31823;47.032;8.310;2023-07-09T05:48:53;18.60;99.90
46085;DHT22;31823;47.032;8.310;2023-07-09T05:51:18;18.70;99.90
46085;DHT22;31823;47.032;8.310;2023-07-09T05:53:44;18.80;99.90
46085;DHT22;31823;47.032;8.310;2023-07-09T05:56:09;18.80;99.90
46085;DHT22;31823;47.032;8.310;2023-07-09T05:58:36;18.90;99.90
46085;DHT22;31823;47.032;8.310;2023-07-09T06:01:03;18.90;99.90
46085;DHT22;31823;47.032;8.310;2023-07-09T06:03:29;19.00;99.90
46085;DHT22;31823;47.032;8.310;2023-07-09T06:05:56;19.00;99.90
46085;DHT22;31823;47.032;8.310;2023-07-09T06:08:22;19.10;99.90
46085;DHT22;31823;47.032;8.310;2023-07-09T06:10:55;19.10;99.90
46085;DHT22;31823;47.032;8.310;2023-07-09T06:13:21;19.20;99.90
46085;DHT22;31823;47.032;8.310;2023-07-09T06:15:48;19.30;99.90
46085;DHT22;31823;47.032;8.310;2023-07-09T06:18:14;19.40;99.90
46085;DHT22;31823;47.032;8.310;2023-07-09T06:20:39;19.40;99.90
46085;DHT22;31823;47.032;8.310;2023-07-09T06:23:05;19.50;99.90
46085;DHT22;31823;47.032;8.310;2023-07-09T06:25:31;19.60;99.90
46085;DHT22;31823;47.032;8.310;2023-07-09T06:27:57;19.60;99.90
46085;DHT22;31823;47.032;8.310;2023-07-09T06:30:23;19.70;99.90
46085;DHT22;31823;47.032;8.310;2023-07-09T06:32:48;19.90;99.90
46085;DHT22;31823;47.032;8.310;2023-07-09T06:35:17;20.00;99.90
46085;DHT22;31823;47.032;8.310;2023-07-09T06:37:42;20.30;99.90
46085;DHT22;31823;47.032;8.310;2023-07-09T06:40:08;20.40;99.90
46085;DHT22;31823;47.032;8.310;2023-07-09T06:42:35;20.60;99.90
46085;DHT22;31823;47.032;8.310;2023-07-09T06:45:01;20.90;99.90
46085;DHT22;31823;47.032;8.310;2023-07-09T06:47:27;21.00;99.90
46085;DHT22;31823;47.032;8.310;2023-07-09T06:49:52;21.10;99.90
46085;DHT22;31823;47.032;8.310;2023-07-09T06:52:18;21.40;99.90
46085;DHT22;31823;47.032;8.310;2023-07-09T06:54:43;21.70;99.90
46085;DHT22;31823;47.032;8.310;2023-07-09T06:57:09;22.10;99.90
46085;DHT22;31823;47.032;8.310;2023-07-09T06:59:34;22.20;99.90
46085;DHT22;31823;47.032;8.310;2023-07-09T07:02:00;22.20;99.90
46085;DHT22;31823;47.032;8.310;2023-07-09T07:04:26;22.40;99.90
46085;DHT22;31823;47.032;8.310;2023-07-09T07:06:53;22.60;99.90
46085;DHT22;31823;47.032;8.310;2023-07-09T07:09:21;22.90;99.90
46085;DHT22;31823;47.032;8.310;2023-07-09T07:11:46;22.80;99.90
46085;DHT22;31823;47.032;8.310;2023-07-09T07:14:12;23.00;99.90
46085;DHT22;31823;47.032;8.310;2023-07-09T07:16:37;23.00;99.90
46085;DHT22;31823;47.032;8.310;2023-07-09T07:19:06;23.20;99.90
46085;DHT22;31823;47.032;8.310;2023-07-09T07:21:31;23.30;99.90
46085;DHT22;31823;47.032;8.310;2023-07-09T07:23:57;23.70;99.90
46085;DHT22;31823;47.032;8.310;2023-07-09T07:26:22;23.30;99.90
46085;DHT22;31823;47.032;8.310;2023-07-09T07:28:48;23.50;99.90
46085;DHT22;31823;47.032;8.310;2023-07-09T07:31:15;24.20;99.90
46085;DHT22;31823;47.032;8.310;2023-07-09T07:33:41;24.60;99.90
46085;DHT22;31823;47.032;8.310;2023-07-09T07:36:07;24.50;99.90
46085;DHT22;31823;47.032;8.310;2023-07-09T07:38:33;24.80;99.90
46085;DHT22;31823;47.032;8.310;2023-07-09T07:41:00;24.80;99.90
46085;DHT22;31823;47.032;8.310;2023-07-09T07:43:26;24.60;99.80
46085;DHT22;31823;47.032;8.310;2023-07-09T07:45:51;24.90;99.50
46085;DHT22;31823;47.032;8.310;2023-07-09T07:48:17;25.50;99.60
46085;DHT22;31823;47.032;8.310;2023-07-09T07:50:43;25.80;99.90
46085;DHT22;31823;47.032;8.310;2023-07-09T07:53:11;25.10;99.90
46085;DHT22;31823;47.032;8.310;2023-07-09T07:55:36;25.20;99.90
46085;DHT22;31823;47.032;8.310;2023-07-09T07:58:03;25.50;99.90
46085;DHT22;31823;47.032;8.310;2023-07-09T08:00:30;25.70;99.90
46085;DHT22;31823;47.032;8.310;2023-07-09T08:02:56;25.90;99.90
46085;DHT22;31823;47.032;8.310;2023-07-09T08:05:21;25.80;99.90
46085;DHT22;31823;47.032;8.310;2023-07-09T08:07:48;26.30;99.10
46085;DHT22;31823;47.032;8.310;2023-07-09T08:10:13;26.60;98.80
46085;DHT22;31823;47.032;8.310;2023-07-09T08:12:40;26.80;98.50
46085;DHT22;31823;47.032;8.310;2023-07-09T08:15:07;27.00;97.30
46085;DHT22;31823;47.032;8.310;2023-07-09T08:17:32;27.00;97.90
46085;DHT22;31823;47.032;8.310;2023-07-09T08:19:58;26.90;99.70
46085;DHT22;31823;47.032;8.310;2023-07-09T08:22:24;26.90;99.20
46085;DHT22;31823;47.032;8.310;2023-07-09T08:24:50;27.00;96.30
46085;DHT22;31823;47.032;8.310;2023-07-09T08:27:17;27.20;98.50
46085;DHT22;31823;47.032;8.310;2023-07-09T08:29:43;26.90;99.30
46085;DHT22;31823;47.032;8.310;2023-07-09T08:32:09;26.60;99.90
46085;DHT22;31823;47.032;8.310;2023-07-09T08:34:37;26.90;95.70
46085;DHT22;31823;47.032;8.310;2023-07-09T08:37:03;27.60;96.70
46085;DHT22;31823;47.032;8.310;2023-07-09T08:39:29;27.90;95.10
46085;DHT22;31823;47.032;8.310;2023-07-09T08:50:17;27.80;97.80
46085;DHT22;31823;47.032;8.310;2023-07-09T08:52:46;27.70;97.00
46085;DHT22;31823;47.032;8.310;2023-07-09T08:55:33;27.70;94.10
46085;DHT22;31823;47.032;8.310;2023-07-09T08:58:14;27.80;92.80
46085;DHT22;31823;47.032;8.310;2023-07-09T09:00:52;28.00;91.50
46085;DHT22;31823;47.032;8.310;2023-07-09T09:03:35;27.90;91.70
46085;DHT22;31823;47.032;8.310;2023-07-09T09:06:13;27.90;95.30
46085;DHT22;31823;47.032;8.310;2023-07-09T09:14:18;28.50;95.60
46085;DHT22;31823;47.032;8.310;2023-07-09T09:16:45;28.70;93.70
46085;DHT22;31823;47.032;8.310;2023-07-09T09:19:38;28.70;93.80
46085;DHT22;31823;47.032;8.310;2023-07-09T09:22:09;29.30;91.80
46085;DHT22;31823;47.032;8.310;2023-07-09T09:24:46;29.10;91.10
46085;DHT22;31823;47.032;8.310;2023-07-09T09:27:16;29.20;91.10
46085;DHT22;31823;47.032;8.310;2023-07-09T09:29:42;29.00;92.40
46085;DHT22;31823;47.032;8.310;2023-07-09T09:34:49;29.50;87.90
46085;DHT22;31823;47.032;8.310;2023-07-09T09:37:31;29.50;91.90
46085;DHT22;31823;47.032;8.310;2023-07-09T09:39:59;29.70;90.90
46085;DHT22;31823;47.032;8.310;2023-07-09T09:42:25;29.80;92.30
46085;DHT22;31823;47.032;8.310;2023-07-09T09:44:54;30.10;87.70
46085;DHT22;31823;47.032;8.310;2023-07-09T09:47:20;29.90;87.70
46085;DHT22;31823;47.032;8.310;2023-07-09T09:49:46;30.00;91.80
46085;DHT22;31823;47.032;8.310;2023-07-09T09:52:16;30.50;87.40
46085;DHT22;31823;47.032;8.310;2023-07-09T09:54:52;30.70;88.90
46085;DHT22;31823;47.032;8.310;2023-07-09T09:57:23;30.90;87.50
46085;DHT22;31823;47.032;8.310;2023-07-09T09:59:49;30.80;84.60
46085;DHT22;31823;47.032;8.310;2023-07-09T10:02:20;30.80;85.50
46085;DHT22;31823;47.032;8.310;2023-07-09T10:04:47;30.80;86.00
46085;DHT22;31823;47.032;8.310;2023-07-09T10:07:28;31.00;90.00
46085;DHT22;31823;47.032;8.310;2023-07-09T10:09:55;31.40;86.10
46085;DHT22;31823;47.032;8.310;2023-07-09T10:12:40;31.80;86.50
46085;DHT22;31823;47.032;8.310;2023-07-09T10:18:06;31.90;82.40
46085;DHT22;31823;47.032;8.310;2023-07-09T10:20:42;31.90;81.90
46085;DHT22;31823;47.032;8.310;2023-07-09T10:26:14;31.50;81.30
46085;DHT22;31823;47.032;8.310;2023-07-09T10:39:55;32.20;87.10
46085;DHT22;31823;47.032;8.310;2023-07-09T10:45:13;32.30;84.10
46085;DHT22;31823;47.032;8.310;2023-07-09T10:47:58;32.50;87.80
46085;DHT22;31823;47.032;8.310;2023-07-09T10:50:29;32.10;89.10
46085;DHT22;31823;47.032;8.310;2023-07-09T10:52:58;32.50;90.50
46085;DHT22;31823;47.032;8.310;2023-07-09T10:58:11;32.60;86.80
46085;DHT22;31823;47.032;8.310;2023-07-09T11:00:41;32.70;86.80
46085;DHT22;31823;47.032;8.310;2023-07-09T11:03:19;32.80;87.90
46085;DHT22;31823;47.032;8.310;2023-07-09T11:05:46;32.70;87.00
46085;DHT22;31823;47.032;8.310;2023-07-09T11:08:16;33.00;85.90
46085;DHT22;31823;47.032;8.310;2023-07-09T11:10:55;33.10;86.10
46085;DHT22;31823;47.032;8.310;2023-07-09T11:15:55;33.40;89.70
46085;DHT22;31823;47.032;8.310;2023-07-09T11:18:25;33.00;86.30
46085;DHT22;31823;47.032;8.310;2023-07-09T11:21:06;33.20;88.30
46085;DHT22;31823;47.032;8.310;2023-07-09T11:28:47;33.90;77.80
46085;DHT22;31823;47.032;8.310;2023-07-09T11:34:15;33.80;80.00
46085;DHT22;31823;47.032;8.310;2023-07-09T11:37:00;33.90;81.10
46085;DHT22;31823;47.032;8.310;2023-07-09T11:44:49;34.40;77.80
46085;DHT22;31823;47.032;8.310;2023-07-09T11:47:25;34.20;78.80
46085;DHT22;31823;47.032;8.310;2023-07-09T11:50:06;34.40;75.90
46085;DHT22;31823;47.032;8.310;2023-07-09T11:52:46;34.20;77.00
46085;DHT22;31823;47.032;8.310;2023-07-09T11:55:29;34.50;77.00
46085;DHT22;31823;47.032;8.310;2023-07-09T11:58:00;34.70;74.50
46085;DHT22;31823;47.032;8.310;2023-07-09T12:00:29;34.40;78.70
46085;DHT22;31823;47.032;8.310;2023-07-09T12:02:56;33.80;75.00
46085;DHT22;31823;47.032;8.310;2023-07-09T12:05:27;34.30;74.30
46085;DHT22;31823;47.032;8.310;2023-07-09T12:07:54;34.90;73.80
46085;DHT22;31823;47.032;8.310;2023-07-09T12:10:23;35.10;74.80
46085;DHT22;31823;47.032;8.310;2023-07-09T12:12:56;35.40;74.20
46085;DHT22;31823;47.032;8.310;2023-07-09T12:15:25;35.40;75.20
46085;DHT22;31823;47.032;8.310;2023-07-09T12:18:03;35.70;69.70
46085;DHT22;31823;47.032;8.310;2023-07-09T12:20:35;35.40;69.60
46085;DHT22;31823;47.032;8.310;2023-07-09T12:23:22;35.20;70.10
46085;DHT22;31823;47.032;8.310;2023-07-09T12:25:50;35.50;67.60
46085;DHT22;31823;47.032;8.310;2023-07-09T12:28:17;35.30;67.20
46085;DHT22;31823;47.032;8.310;2023-07-09T12:30:51;35.30;63.80
46085;DHT22;31823;47.032;8.310;2023-07-09T12:33:19;35.60;66.30
46085;DHT22;31823;47.032;8.310;2023-07-09T12:35:46;35.20;64.80
46085;DHT22;31823;47.032;8.310;2023-07-09T12:38:19;35.60;64.00
46085;DHT22;31823;47.032;8.310;2023-07-09T12:40:50;35.50;67.40
46085;DHT22;31823;47.032;8.310;2023-07-09T12:43:26;35.80;67.70
46085;DHT22;31823;47.032;8.310;2023-07-09T12:45:53;36.00;65.20
46085;DHT22;31823;47.032;8.310;2023-07-09T12:48:22;35.80;66.70
46085;DHT22;31823;47.032;8.310;2023-07-09T12:50:50;35.50;65.30
46085;DHT22;31823;47.032;8.310;2023-07-09T12:53:19;35.70;65.70
46085;DHT22;31823;47.032;8.310;2023-07-09T12:55:49;35.80;64.40
46085;DHT22;31823;47.032;8.310;2023-07-09T12:58:22;35.80;66.60
46085;DHT22;31823;47.032;8.310;2023-07-09T13:00:52;35.90;66.00
46085;DHT22;31823;47.032;8.310;2023-07-09T13:03:31;35.70;67.30
46085;DHT22;31823;47.032;8.310;2023-07-09T13:06:06;36.10;64.50
46085;DHT22;31823;47.032;8.310;2023-07-09T13:08:41;36.20;62.90
46085;DHT22;31823;47.032;8.310;2023-07-09T13:11:18;35.80;62.70
46085;DHT22;31823;47.032;8.310;2023-07-09T13:13:57;35.90;61.20
46085;DHT22;31823;47.032;8.310;2023-07-09T13:16:23;36.00;60.60
46085;DHT22;31823;47.032;8.310;2023-07-09T13:18:49;36.10;61.00
46085;DHT22;31823;47.032;8.310;2023-07-09T13:21:17;35.90;61.50
46085;DHT22;31823;47.032;8.310;2023-07-09T13:23:43;35.80;59.70
46085;DHT22;31823;47.032;8.310;2023-07-09T13:26:09;35.60;62.70
46085;DHT22;31823;47.032;8.310;2023-07-09T13:28:35;36.40;64.10
46085;DHT22;31823;47.032;8.310;2023-07-09T13:31:14;35.20;59.70
46085;DHT22;31823;47.032;8.310;2023-07-09T13:33:44;35.60;64.50
46085;DHT22;31823;47.032;8.310;2023-07-09T13:36:10;35.80;61.20
46085;DHT22;31823;47.032;8.310;2023-07-09T13:38:35;35.80;58.20
46085;DHT22;31823;47.032;8.310;2023-07-09T13:41:19;35.70;58.50
46085;DHT22;31823;47.032;8.310;2023-07-09T13:43:47;35.80;56.90
46085;DHT22;31823;47.032;8.310;2023-07-09T13:46:13;36.10;59.50
46085;DHT22;31823;47.032;8.310;2023-07-09T13:48:41;36.30;58.60
46085;DHT22;31823;47.032;8.310;2023-07-09T13:51:19;36.20;58.70
46085;DHT22;31823;47.032;8.310;2023-07-09T13:53:45;35.90;59.50
46085;DHT22;31823;47.032;8.310;2023-07-09T13:56:11;35.80;59.60
46085;DHT22;31823;47.032;8.310;2023-07-09T13:58:36;35.80;57.30
46085;DHT22;31823;47.032;8.310;2023-07-09T14:01:13;35.80;58.60
46085;DHT22;31823;47.032;8.310;2023-07-09T14:03:40;35.80;61.30
46085;DHT22;31823;47.032;8.310;2023-07-09T14:06:09;36.10;59.20
46085;DHT22;31823;47.032;8.310;2023-07-09T14:08:36;36.30;58.90
46085;DHT22;31823;47.032;8.310;2023-07-09T14:11:02;35.60;53.80
46085;DHT22;31823;47.032;8.310;2023-07-09T14:13:29;35.80;58.90
46085;DHT22;31823;47.032;8.310;2023-07-09T14:15:57;36.00;62.10
46085;DHT22;31823;47.032;8.310;2023-07-09T14:18:22;35.40;60.00
46085;DHT22;31823;47.032;8.310;2023-07-09T14:20:50;34.80;58.80
46085;DHT22;31823;47.032;8.310;2023-07-09T14:23:17;34.20;57.90
46085;DHT22;31823;47.032;8.310;2023-07-09T14:25:44;34.20;65.00
46085;DHT22;31823;47.032;8.310;2023-07-09T14:28:18;34.00;67.50
46085;DHT22;31823;47.032;8.310;2023-07-09T14:30:44;33.30;70.70
46085;DHT22;31823;47.032;8.310;2023-07-09T14:33:14;33.10;64.40
46085;DHT22;31823;47.032;8.310;2023-07-09T14:35:40;32.70;66.60
46085;DHT22;31823;47.032;8.310;2023-07-09T14:40:39;32.90;73.30
46085;DHT22;31823;47.032;8.310;2023-07-09T14:43:09;32.30;72.30
46085;DHT22;31823;47.032;8.310;2023-07-09T14:45:35;31.90;74.30
46085;DHT22;31823;47.032;8.310;2023-07-09T14:48:01;32.00;71.00
46085;DHT22;31823;47.032;8.310;2023-07-09T14:50:27;31.80;78.90
46085;DHT22;31823;47.032;8.310;2023-07-09T14:52:53;31.40;77.30
46085;DHT22;31823;47.032;8.310;2023-07-09T14:55:20;31.00;82.60
46085;DHT22;31823;47.032;8.310;2023-07-09T14:57:47;31.00;78.50
46085;DHT22;31823;47.032;8.310;2023-07-09T15:00:15;30.80;83.60
46085;DHT22;31823;47.032;8.310;2023-07-09T15:02:42;30.60;84.70
46085;DHT22;31823;47.032;8.310;2023-07-09T15:05:18;30.60;82.70
46085;DHT22;31823;47.032;8.310;2023-07-09T15:07:44;30.50;82.60
46085;DHT22;31823;47.032;8.310;2023-07-09T15:10:36;30.30;81.60
46085;DHT22;31823;47.032;8.310;2023-07-09T15:13:02;30.20;83.00
46085;DHT22;31823;47.032;8.310;2023-07-09T15:15:30;30.10;85.20
46085;DHT22;31823;47.032;8.310;2023-07-09T15:17:58;30.10;84.50
46085;DHT22;31823;47.032;8.310;2023-07-09T15:20:29;30.10;84.20
46085;DHT22;31823;47.032;8.310;2023-07-09T15:22:57;30.10;86.00
46085;DHT22;31823;47.032;8.310;2023-07-09T15:25:24;30.10;86.30
46085;DHT22;31823;47.032;8.310;2023-07-09T15:27:51;29.80;89.40
46085;DHT22;31823;47.032;8.310;2023-07-09T15:30:23;29.90;87.40
46085;DHT22;31823;47.032;8.310;2023-07-09T15:32:49;29.90;90.30
46085;DHT22;31823;47.032;8.310;2023-07-09T15:35:17;29.90;85.50
46085;DHT22;31823;47.032;8.310;2023-07-09T15:37:43;29.90;87.50
46085;DHT22;31823;47.032;8.310;2023-07-09T15:40:21;29.90;85.50
46085;DHT22;31823;47.032;8.310;2023-07-09T15:42:48;29.80;85.80
46085;DHT22;31823;47.032;8.310;2023-07-09T15:45:16;29.70;88.00
46085;DHT22;31823;47.032;8.310;2023-07-09T15:47:42;29.60;87.30
46085;DHT22;31823;47.032;8.310;2023-07-09T15:50:21;29.40;87.90
46085;DHT22;31823;47.032;8.310;2023-07-09T15:52:48;29.30;90.20
46085;DHT22;31823;47.032;8.310;2023-07-09T15:55:25;29.20;90.10
46085;DHT22;31823;47.032;8.310;2023-07-09T15:57:58;29.10;90.20
46085;DHT22;31823;47.032;8.310;2023-07-09T16:00:26;29.00;90.10
46085;DHT22;31823;47.032;8.310;2023-07-09T16:02:53;29.00;89.90
46085;DHT22;31823;47.032;8.310;2023-07-09T16:05:29;29.00;88.40
46085;DHT22;31823;47.032;8.310;2023-07-09T16:07:58;29.00;87.50
46085;DHT22;31823;47.032;8.310;2023-07-09T16:10:26;29.00;88.70
46085;DHT22;31823;47.032;8.310;2023-07-09T16:12:53;28.90;88.20
46085;DHT22;31823;47.032;8.310;2023-07-09T16:15:21;28.90;87.20
46085;DHT22;31823;47.032;8.310;2023-07-09T16:17:48;28.90;86.20
46085;DHT22;31823;47.032;8.310;2023-07-09T16:20:23;28.80;86.20
46085;DHT22;31823;47.032;8.310;2023-07-09T16:22:52;28.70;85.80
46085;DHT22;31823;47.032;8.310;2023-07-09T16:25:21;28.60;85.60
46085;DHT22;31823;47.032;8.310;2023-07-09T16:27:48;28.40;86.90
46085;DHT22;31823;47.032;8.310;2023-07-09T16:30:21;28.30;86.50
46085;DHT22;31823;47.032;8.310;2023-07-09T16:32:48;28.20;88.40
46085;DHT22;31823;47.032;8.310;2023-07-09T16:35:16;28.10;87.60
46085;DHT22;31823;47.032;8.310;2023-07-09T16:37:43;28.00;87.70